createdAt,value
2024-01-17T00:01:03.324Z,3.73
2024-01-17T00:03:30.652Z,4.77
2024-01-17T00:05:58.018Z,4.33
2024-01-17T00:08:25.359Z,3.43
2024-01-17T00:10:52.695Z,4.60
2024-01-17T00:13:19.891Z,4.17
2024-01-17T00:15:47.213Z,4.23
2024-01-17T00:18:14.668Z,3.70
2024-01-17T00:20:42.022Z,4.03
2024-01-17T00:23:09.305Z,1.23
2024-01-17T00:25:36.521Z,2.37
2024-01-17T00:28:04.025Z,3.43
2024-01-17T00:30:31.527Z,3.80
2024-01-17T00:32:59.043Z,4.20
2024-01-17T00:35:26.832Z,4.87
2024-01-17T00:37:54.133Z,4.43
2024-01-17T00:40:21.470Z,2.73
2024-01-17T00:42:48.724Z,2.40
2024-01-17T00:45:16.309Z,5.37
2024-01-17T00:47:44.286Z,4.73
2024-01-17T00:50:11.786Z,5.60
2024-01-17T00:52:39.099Z,3.53
2024-01-17T00:55:06.802Z,6.00
2024-01-17T00:57:34.090Z,4.93
2024-01-17T01:00:01.397Z,4.80
2024-01-17T01:02:29.878Z,4.67
2024-01-17T01:04:57.278Z,6.43
2024-01-17T01:07:24.619Z,3.90
2024-01-17T01:09:54.430Z,5.20
2024-01-17T01:12:23.205Z,3.47
2024-01-17T01:14:50.549Z,1.73
2024-01-17T01:17:17.917Z,4.13
2024-01-17T01:19:45.240Z,4.63
2024-01-17T01:22:12.865Z,5.80
2024-01-17T01:24:40.183Z,6.33
2024-01-17T01:27:07.421Z,3.73
2024-01-17T01:29:34.820Z,3.37
2024-01-17T01:32:02.139Z,5.80
2024-01-17T01:34:29.448Z,3.23
2024-01-17T01:36:56.783Z,4.53
2024-01-17T01:39:24.059Z,6.00
2024-01-17T01:41:51.403Z,6.13
2024-01-17T01:44:18.695Z,6.77
2024-01-17T01:46:48.310Z,6.73
2024-01-17T01:49:16.727Z,3.10
2024-01-17T01:51:47.533Z,5.17
2024-01-17T01:54:17.076Z,5.78
2024-01-17T01:56:44.972Z,5.23
2024-01-17T01:59:12.513Z,6.57
2024-01-17T02:01:40.598Z,2.37
2024-01-17T02:04:08.657Z,5.70
2024-01-17T02:06:39.422Z,2.53
2024-01-17T02:11:34.784Z,5.90
2024-01-17T02:14:02.097Z,4.97
2024-01-17T02:16:29.726Z,3.63
2024-01-17T02:18:57.140Z,4.27
2024-01-17T02:21:24.655Z,4.67
2024-01-17T02:23:52.635Z,5.57
2024-01-17T02:26:20.737Z,3.73
2024-01-17T02:28:47.976Z,5.47
2024-01-17T02:31:16.440Z,5.77
2024-01-17T02:33:45.772Z,4.63
2024-01-17T02:36:13.667Z,3.63
2024-01-17T02:38:40.976Z,4.33
2024-01-17T02:41:09.399Z,5.93
2024-01-17T02:43:36.818Z,1.97
2024-01-17T02:46:04.182Z,3.57
2024-01-17T02:48:31.478Z,4.03
2024-01-17T02:50:58.852Z,1.97
2024-01-17T02:53:26.195Z,6.43
2024-01-17T02:55:53.673Z,3.33
2024-01-17T02:58:21.118Z,5.93
2024-01-17T03:00:49.380Z,3.60
2024-01-17T03:03:16.805Z,3.80
2024-01-17T03:05:44.144Z,3.47
2024-01-17T03:08:11.396Z,1.50
2024-01-17T03:10:38.593Z,1.93
2024-01-17T03:13:08.949Z,6.00
2024-01-17T03:15:36.229Z,3.45
2024-01-17T03:18:03.895Z,3.73
2024-01-17T03:20:31.296Z,1.83
2024-01-17T03:22:58.553Z,3.97
2024-01-17T03:25:26.710Z,5.77
2024-01-17T03:27:53.975Z,3.07
2024-01-17T03:30:21.424Z,4.83
2024-01-17T03:32:48.809Z,3.00
2024-01-17T03:35:16.070Z,5.03
2024-01-17T03:37:43.365Z,5.33
2024-01-17T03:40:11.339Z,5.57
2024-01-17T03:42:38.718Z,3.27
2024-01-17T03:45:06.429Z,1.77
2024-01-17T03:47:33.871Z,4.93
2024-01-17T03:50:01.220Z,3.27
2024-01-17T03:52:30.582Z,6.03
2024-01-17T03:54:57.889Z,2.43
2024-01-17T03:57:25.153Z,0.97
2024-01-17T03:59:52.491Z,3.13
2024-01-17T04:02:19.857Z,5.77
2024-01-17T04:04:48.836Z,4.67
2024-01-17T04:07:16.321Z,5.50
2024-01-17T04:09:45.082Z,4.00
2024-01-17T04:12:14.960Z,2.93
2024-01-17T04:14:43.263Z,3.93
2024-01-17T04:17:12.534Z,3.37
2024-01-17T04:19:39.908Z,2.80
2024-01-17T04:22:07.340Z,2.43
2024-01-17T04:24:34.704Z,1.40
2024-01-17T04:27:02.080Z,2.83
2024-01-17T04:29:29.472Z,3.17
2024-01-17T04:31:58.672Z,5.33
2024-01-17T04:34:26.119Z,2.23
2024-01-17T04:36:53.500Z,4.50
2024-01-17T04:39:20.849Z,5.47
2024-01-17T04:41:48.214Z,3.60
2024-01-17T04:44:15.686Z,5.17
2024-01-17T04:46:42.987Z,5.00
2024-01-17T04:49:11.041Z,2.67
2024-01-17T04:51:38.464Z,2.03
2024-01-17T04:54:05.822Z,6.47
2024-01-17T04:56:33.156Z,3.03
2024-01-17T04:59:00.459Z,5.50
2024-01-17T05:01:27.846Z,3.47
2024-01-17T05:03:55.115Z,1.77
2024-01-17T05:06:22.871Z,1.90
2024-01-17T05:08:50.208Z,4.03
2024-01-17T05:11:25.992Z,3.23
2024-01-17T05:13:53.371Z,3.93
2024-01-17T05:16:20.815Z,3.40
2024-01-17T05:18:48.286Z,1.87
2024-01-17T05:21:15.660Z,2.30
2024-01-17T05:23:43.120Z,4.57
2024-01-17T05:26:10.901Z,4.77
2024-01-17T05:28:38.229Z,2.70
2024-01-17T05:31:06.057Z,4.23
2024-01-17T05:33:33.578Z,2.93
2024-01-17T05:36:01.133Z,3.10
2024-01-17T05:38:28.618Z,4.30
2024-01-17T05:40:55.985Z,5.90
2024-01-17T05:43:23.932Z,5.10
2024-01-17T05:45:52.041Z,5.53
2024-01-17T05:48:19.717Z,3.90
2024-01-17T05:50:47.337Z,3.97
2024-01-17T05:53:14.790Z,3.50
2024-01-17T05:55:42.606Z,3.27
2024-01-17T05:58:13.184Z,3.17
2024-01-17T06:00:42.023Z,3.42
2024-01-17T06:03:09.506Z,3.93
2024-01-17T06:05:37.390Z,4.13
2024-01-17T06:08:05.872Z,3.47
2024-01-17T06:10:33.317Z,2.33
2024-01-17T06:13:03.229Z,2.03
2024-01-17T06:15:30.514Z,3.73
2024-01-17T06:18:17.405Z,1.50
2024-01-17T06:20:44.920Z,2.97
2024-01-17T06:23:12.295Z,4.10
2024-01-17T06:25:39.594Z,1.70
2024-01-17T06:28:07.049Z,4.83
2024-01-17T06:30:34.411Z,5.23
2024-01-17T06:33:02.007Z,1.23
2024-01-17T06:35:29.514Z,4.83
2024-01-17T06:37:56.929Z,3.17
2024-01-17T06:40:24.189Z,1.80
2024-01-17T06:42:51.492Z,1.87
2024-01-17T06:45:19.549Z,1.83
2024-01-17T06:47:46.992Z,2.93
2024-01-17T06:50:15.603Z,3.37
2024-01-17T06:52:43.080Z,2.47
2024-01-17T06:55:10.442Z,1.23
2024-01-17T06:57:37.725Z,2.17
2024-01-17T07:00:06.081Z,1.40
2024-01-17T07:02:33.711Z,1.77
2024-01-17T07:05:01.081Z,3.00
2024-01-17T07:07:28.566Z,2.63
2024-01-17T07:09:55.866Z,4.83
2024-01-17T07:12:23.253Z,2.30
2024-01-17T07:14:51.217Z,2.30
2024-01-17T07:17:18.832Z,1.70
2024-01-17T07:19:46.117Z,1.23
2024-01-17T07:22:14.520Z,3.13
2024-01-17T07:24:44.639Z,3.33
2024-01-17T07:27:12.107Z,1.88
2024-01-17T07:29:39.427Z,3.27
2024-01-17T07:32:06.921Z,2.70
2024-01-17T07:34:35.234Z,3.30
2024-01-17T07:37:02.872Z,2.63
2024-01-17T07:39:30.264Z,2.00
2024-01-17T07:41:58.151Z,2.23
2024-01-17T07:44:30.631Z,2.43
2024-01-17T07:46:58.129Z,2.57
2024-01-17T07:49:25.655Z,2.87
2024-01-17T07:51:53.208Z,1.50
2024-01-17T07:54:20.945Z,2.10
2024-01-17T07:56:48.413Z,1.73
2024-01-17T07:59:15.652Z,1.73
2024-01-17T08:01:43.180Z,1.97
2024-01-17T08:04:10.650Z,1.53
2024-01-17T08:06:38.136Z,3.03
2024-01-17T08:09:14.163Z,1.57
2024-01-17T08:11:41.774Z,1.13
2024-01-17T08:14:09.156Z,4.00
2024-01-17T08:16:36.804Z,1.53
2024-01-17T08:19:06.554Z,1.70
2024-01-17T08:21:33.928Z,4.23
2024-01-17T08:24:19.682Z,0.73
2024-01-17T08:26:46.994Z,3.17
2024-01-17T08:29:17.941Z,3.80
2024-01-17T08:31:45.879Z,2.10
2024-01-17T08:34:13.517Z,2.30
2024-01-17T08:36:40.986Z,2.83
2024-01-17T08:39:27.157Z,1.57
2024-01-17T08:41:55.345Z,3.13
2024-01-17T08:44:44.416Z,1.23
2024-01-17T08:47:11.801Z,3.60
2024-01-17T08:49:42.443Z,2.63
2024-01-17T08:52:09.770Z,2.67
2024-01-17T08:54:37.218Z,4.03
2024-01-17T08:57:05.013Z,2.37
2024-01-17T08:59:34.749Z,1.13
2024-01-17T09:02:02.197Z,3.07
2024-01-17T09:04:31.202Z,1.97
2024-01-17T09:06:58.636Z,2.23
2024-01-17T09:09:28.848Z,1.83
2024-01-17T09:11:56.376Z,3.70
2024-01-17T09:14:25.990Z,4.03
2024-01-17T09:16:54.614Z,3.60
2024-01-17T09:19:22.362Z,1.87
2024-01-17T09:21:55.430Z,1.93
2024-01-17T09:24:22.858Z,1.20
2024-01-17T09:26:53.732Z,1.87
2024-01-17T09:29:21.700Z,3.30
2024-01-17T09:31:49.682Z,2.53
2024-01-17T09:34:17.752Z,2.50
2024-01-17T09:36:45.620Z,2.10
2024-01-17T09:39:13.169Z,1.93
2024-01-17T09:41:40.739Z,2.47
2024-01-17T09:44:08.089Z,2.53
2024-01-17T09:46:38.474Z,3.53
2024-01-17T09:49:09.179Z,2.63
2024-01-17T09:51:37.406Z,3.53
2024-01-17T09:54:06.823Z,2.13
2024-01-17T09:56:36.483Z,2.33
2024-01-17T09:59:16.067Z,5.00
2024-01-17T10:01:45.164Z,2.93
2024-01-17T10:04:16.642Z,2.63
2024-01-17T10:06:44.901Z,4.17
2024-01-17T10:09:13.690Z,4.30
2024-01-17T10:11:41.693Z,3.63
2024-01-17T10:14:09.441Z,1.57
2024-01-17T10:16:37.368Z,2.63
2024-01-17T10:19:06.831Z,2.97
2024-01-17T10:21:35.445Z,2.37
2024-01-17T10:24:05.341Z,2.33
2024-01-17T10:26:34.250Z,2.92
2024-01-17T10:29:01.824Z,2.00
2024-01-17T10:31:29.297Z,3.47
2024-01-17T10:33:58.001Z,3.43
2024-01-17T10:36:26.404Z,1.30
2024-01-17T10:39:02.445Z,3.20
2024-01-17T10:41:30.122Z,2.30
2024-01-17T10:43:58.919Z,2.23
2024-01-17T10:46:27.561Z,2.30
2024-01-17T10:48:55.640Z,2.20
2024-01-17T10:51:25.186Z,1.50
2024-01-17T10:53:58.120Z,1.47
2024-01-17T10:56:28.306Z,2.23
2024-01-17T10:58:56.966Z,2.00
2024-01-17T11:01:39.393Z,2.47
2024-01-17T11:04:16.578Z,1.47
2024-01-17T11:06:45.782Z,2.37
2024-01-17T11:09:13.796Z,3.03
2024-01-17T11:11:43.300Z,3.10
2024-01-17T11:14:12.329Z,1.30
2024-01-17T11:16:41.048Z,1.87
2024-01-17T11:19:10.340Z,2.47
2024-01-17T11:21:39.004Z,2.37
2024-01-17T11:24:38.006Z,1.40
2024-01-17T11:27:26.583Z,2.27
2024-01-17T11:30:02.740Z,2.00
2024-01-17T11:32:50.204Z,2.10
2024-01-17T11:35:48.540Z,0.70
2024-01-17T11:38:25.311Z,3.00
2024-01-17T11:41:10.760Z,1.17
2024-01-17T11:43:40.230Z,2.33
2024-01-17T11:46:11.233Z,1.13
2024-01-17T11:48:41.084Z,2.33
2024-01-17T11:51:09.812Z,2.20
2024-01-17T11:53:37.594Z,2.47
2024-01-17T11:56:08.200Z,2.33
2024-01-17T11:58:46.345Z,2.93
2024-01-17T12:01:18.465Z,2.27
2024-01-17T12:03:46.288Z,1.33
2024-01-17T12:06:13.857Z,3.87
2024-01-17T12:08:42.471Z,1.37
2024-01-17T12:11:10.490Z,1.57
2024-01-17T12:13:39.049Z,2.13
2024-01-17T12:16:07.331Z,1.40
2024-01-17T12:19:00.927Z,2.20
2024-01-17T12:21:28.863Z,3.10
2024-01-17T12:24:15.951Z,2.00
2024-01-17T12:26:45.266Z,2.87
2024-01-17T12:29:15.978Z,2.40
2024-01-17T12:31:43.495Z,2.97
2024-01-17T12:34:12.739Z,2.30
2024-01-17T12:36:40.737Z,2.33
2024-01-17T12:39:10.431Z,1.50
2024-01-17T12:41:40.207Z,2.40
2024-01-17T12:44:08.807Z,2.20
2024-01-17T12:46:36.697Z,1.03
2024-01-17T12:49:04.484Z,1.33
2024-01-17T12:51:47.567Z,1.40
2024-01-17T12:54:19.024Z,2.40
2024-01-17T12:56:48.839Z,0.90
2024-01-17T12:59:19.283Z,0.60
2024-01-17T13:01:46.843Z,2.55
2024-01-17T13:04:14.321Z,1.47
2024-01-17T13:06:49.100Z,2.17
2024-01-17T13:09:21.740Z,2.27
2024-01-17T13:11:53.822Z,2.10
2024-01-17T13:14:25.380Z,2.97
2024-01-17T13:16:55.160Z,2.60
2024-01-17T13:19:42.507Z,2.67
2024-01-17T13:22:09.899Z,2.53
2024-01-17T13:24:37.232Z,1.67
2024-01-17T13:27:04.663Z,2.00
2024-01-17T13:29:31.936Z,0.70
2024-01-17T13:31:59.278Z,1.63
2024-01-17T13:34:26.659Z,1.77
2024-01-17T13:36:54.042Z,2.17
2024-01-17T13:39:27.217Z,1.97
2024-01-17T13:41:54.577Z,0.60
2024-01-17T13:44:24.737Z,2.00
2024-01-17T13:46:55.083Z,1.95
2024-01-17T13:49:27.072Z,1.80
2024-01-17T13:54:24.738Z,3.80
2024-01-17T13:56:52.199Z,2.13
2024-01-17T13:59:19.817Z,2.83
2024-01-17T14:01:48.322Z,0.70
2024-01-17T14:04:15.903Z,1.63
2024-01-17T14:06:43.519Z,3.73
2024-01-17T14:09:11.020Z,2.03
2024-01-17T14:11:40.519Z,2.30
2024-01-17T14:14:13.119Z,2.80
2024-01-17T14:16:43.636Z,2.73
2024-01-17T14:19:11.678Z,3.33
2024-01-17T14:21:39.309Z,2.60
2024-01-17T14:24:07.501Z,1.63
2024-01-17T14:26:35.032Z,3.00
2024-01-17T14:29:02.468Z,2.60
2024-01-17T14:31:29.816Z,2.10
2024-01-17T14:33:58.053Z,4.20
2024-01-17T14:36:25.825Z,1.17
2024-01-17T14:38:53.176Z,3.47
2024-01-17T14:41:24.064Z,1.53
2024-01-17T14:43:54.501Z,3.00
2024-01-17T14:46:22.120Z,2.60
2024-01-17T14:48:49.591Z,2.97
2024-01-17T14:51:17.120Z,0.53
2024-01-17T14:53:44.482Z,3.13
2024-01-17T14:56:11.843Z,2.47
2024-01-17T14:58:39.147Z,1.53
2024-01-17T15:01:09.681Z,2.03
2024-01-17T15:03:37.348Z,1.70
2024-01-17T15:06:07.343Z,2.40
2024-01-17T15:08:35.476Z,2.17
2024-01-17T15:11:02.843Z,1.27
2024-01-17T15:13:30.103Z,2.33
2024-01-17T15:15:57.400Z,2.73
2024-01-17T15:18:43.579Z,1.57
2024-01-17T15:21:14.527Z,0.70
2024-01-17T15:23:42.823Z,2.30
2024-01-17T15:26:10.562Z,1.13
2024-01-17T15:28:38.684Z,1.40
2024-01-17T15:31:06.577Z,1.47
2024-01-17T15:33:34.932Z,2.23
2024-01-17T15:36:02.424Z,1.47
2024-01-17T15:38:31.239Z,1.77
2024-01-17T15:41:00.592Z,1.77
2024-01-17T15:43:28.838Z,1.40
2024-01-17T15:45:56.523Z,1.77
2024-01-17T15:48:23.948Z,1.10
2024-01-17T15:50:51.312Z,2.20
2024-01-17T15:53:19.150Z,1.03
2024-01-17T15:55:46.571Z,1.10
2024-01-17T15:58:14.036Z,0.87
2024-01-17T16:00:44.836Z,0.53
2024-01-17T16:05:41.191Z,2.47
2024-01-17T16:08:08.687Z,1.10
2024-01-17T16:10:36.863Z,0.60
2024-01-17T16:13:04.975Z,1.13
2024-01-17T16:15:34.249Z,1.30
2024-01-17T16:18:06.392Z,1.47
2024-01-17T16:20:33.908Z,0.90
2024-01-17T16:23:02.429Z,1.50
2024-01-17T16:25:29.835Z,0.80
2024-01-17T16:27:58.032Z,1.30
2024-01-17T16:30:25.957Z,0.67
2024-01-17T16:32:53.468Z,0.50
2024-01-17T16:35:20.939Z,2.40
2024-01-17T16:37:48.324Z,1.93
2024-01-17T16:40:16.980Z,2.40
2024-01-17T16:42:47.002Z,0.88
2024-01-17T16:45:15.157Z,2.30
2024-01-17T16:47:47.969Z,0.50
2024-01-17T16:50:16.979Z,0.20
2024-01-17T16:52:44.265Z,2.43
2024-01-17T16:55:11.686Z,0.77
2024-01-17T16:57:39.112Z,1.13
2024-01-17T17:00:07.239Z,0.80
2024-01-17T17:02:37.419Z,0.67
2024-01-17T17:05:06.389Z,2.17
2024-01-17T17:07:34.044Z,2.07
2024-01-17T17:10:02.230Z,0.70
2024-01-17T17:12:31.918Z,0.70
2024-01-17T17:14:59.189Z,0.57
2024-01-17T17:17:26.515Z,1.53
2024-01-17T17:19:54.021Z,0.47
2024-01-17T17:22:30.414Z,1.80
2024-01-17T17:25:06.756Z,1.10
2024-01-17T17:27:34.133Z,0.80
2024-01-17T17:30:01.854Z,1.40
2024-01-17T17:32:29.627Z,0.70
2024-01-17T17:34:56.972Z,1.13
2024-01-17T17:37:24.284Z,1.60
2024-01-17T17:39:51.551Z,1.50
2024-01-17T17:42:18.877Z,1.80
2024-01-17T17:44:46.266Z,1.70
2024-01-17T17:47:14.683Z,1.40
2024-01-17T17:49:43.052Z,1.33
2024-01-17T17:52:10.457Z,2.77
2024-01-17T17:54:37.905Z,0.90
2024-01-17T17:57:05.208Z,1.50
2024-01-17T17:59:32.903Z,1.50
2024-01-17T18:02:00.290Z,1.47
2024-01-17T18:04:28.117Z,3.07
2024-01-17T18:06:55.619Z,0.57
2024-01-17T18:09:24.113Z,1.10
2024-01-17T18:11:51.550Z,0.37
2024-01-17T18:14:18.845Z,0.70
2024-01-17T18:16:46.070Z,1.77
2024-01-17T18:19:15.817Z,1.87
2024-01-17T18:21:43.163Z,1.17
2024-01-17T18:24:11.704Z,0.70
2024-01-17T18:26:39.919Z,0.90
2024-01-17T18:29:07.202Z,1.03
2024-01-17T18:31:38.147Z,1.07
2024-01-17T18:34:06.839Z,1.33
2024-01-17T18:36:36.205Z,1.20
2024-01-17T18:39:04.272Z,0.60
2024-01-17T18:41:31.827Z,1.40
2024-01-17T18:43:59.140Z,1.70
2024-01-17T18:46:26.545Z,1.10
2024-01-17T18:48:53.942Z,0.77
2024-01-17T18:51:21.426Z,1.30
2024-01-17T18:53:49.441Z,2.57
2024-01-17T18:56:16.869Z,1.10
2024-01-17T18:58:44.328Z,2.00
2024-01-17T19:01:11.769Z,2.93
2024-01-17T19:03:39.164Z,1.00
2024-01-17T19:06:07.896Z,1.37
2024-01-17T19:08:35.217Z,1.03
2024-01-17T19:11:02.534Z,0.60
2024-01-17T19:13:30.216Z,0.80
2024-01-17T19:15:57.502Z,1.90
2024-01-17T19:18:24.954Z,0.80
2024-01-17T19:20:54.143Z,1.67
2024-01-17T19:23:21.480Z,2.23
2024-01-17T19:25:48.796Z,1.20
2024-01-17T19:28:16.204Z,2.13
2024-01-17T19:30:43.612Z,2.47
2024-01-17T19:33:11.239Z,2.10
2024-01-17T19:35:38.758Z,0.90
2024-01-17T19:38:06.081Z,1.27
2024-01-17T19:40:36.486Z,0.80
2024-01-17T19:43:04.091Z,0.40
2024-01-17T19:45:32.138Z,0.70
2024-01-17T19:47:59.611Z,1.07
2024-01-17T19:50:27.045Z,0.70
2024-01-17T19:52:54.334Z,0.70
2024-01-17T19:55:21.722Z,0.50
2024-01-17T19:57:49.244Z,1.00
2024-01-17T20:00:32.603Z,1.10
2024-01-17T20:03:01.172Z,0.30
2024-01-17T20:05:28.764Z,0.53
2024-01-17T20:07:56.434Z,1.80
2024-01-17T20:10:23.801Z,1.07
2024-01-17T20:12:51.266Z,0.20
2024-01-17T20:15:18.594Z,0.57
2024-01-17T20:17:46.156Z,1.00
2024-01-17T20:20:13.602Z,0.10
2024-01-17T20:22:40.934Z,1.00
2024-01-17T20:25:14.913Z,1.30
2024-01-17T20:27:42.486Z,0.63
2024-01-17T20:30:10.400Z,1.80
2024-01-17T20:32:37.933Z,1.17
2024-01-17T20:35:05.661Z,0.50
2024-01-17T20:37:32.901Z,0.20
2024-01-17T20:40:00.339Z,1.83
2024-01-17T20:42:27.674Z,1.43
2024-01-17T20:44:55.076Z,0.97
2024-01-17T20:47:22.417Z,0.63
2024-01-17T20:49:49.801Z,0.50
2024-01-17T20:52:17.182Z,2.10
2024-01-17T20:54:44.502Z,1.80
2024-01-17T20:57:11.761Z,1.37
2024-01-17T20:59:39.040Z,2.27
2024-01-17T21:02:06.362Z,0.30
2024-01-17T21:04:33.710Z,1.37
2024-01-17T21:07:01.102Z,0.60
2024-01-17T21:09:28.485Z,1.83
2024-01-17T21:11:58.184Z,0.40
2024-01-17T21:14:25.584Z,1.47
2024-01-17T21:16:53.190Z,1.93
2024-01-17T21:19:20.607Z,0.73
2024-01-17T21:21:48.052Z,0.97
2024-01-17T21:24:15.380Z,0.60
2024-01-17T21:26:45.245Z,0.40
2024-01-17T21:29:13.226Z,0.50
2024-01-17T21:31:41.534Z,1.80
2024-01-17T21:34:09.503Z,0.70
2024-01-17T21:36:37.056Z,0.67
2024-01-17T21:39:05.390Z,0.90
2024-01-17T21:41:32.978Z,0.63
2024-01-17T21:44:00.408Z,0.80
2024-01-17T21:46:29.263Z,0.30
2024-01-17T21:48:56.539Z,0.77
2024-01-17T21:51:23.990Z,2.37
2024-01-17T21:53:51.427Z,0.70
2024-01-17T21:56:18.758Z,0.63
2024-01-17T21:58:46.906Z,0.30
2024-01-17T22:01:14.266Z,1.00
2024-01-17T22:03:41.786Z,1.17
2024-01-17T22:06:09.274Z,0.40
2024-01-17T22:08:48.233Z,1.60
2024-01-17T22:11:20.231Z,1.30
2024-01-17T22:13:48.432Z,1.17
2024-01-17T22:16:16.924Z,1.60
2024-01-17T22:18:44.355Z,1.17
2024-01-17T22:21:11.837Z,0.40
2024-01-17T22:23:57.793Z,0.80
2024-01-17T22:26:25.183Z,1.03
2024-01-17T22:28:52.543Z,1.17
2024-01-17T22:31:25.264Z,0.43
2024-01-17T22:33:54.224Z,1.03
2024-01-17T22:36:24.879Z,1.97
2024-01-17T22:38:55.707Z,1.65
2024-01-17T22:41:23.073Z,0.52
2024-01-17T22:43:50.420Z,1.30
2024-01-17T22:46:17.691Z,0.90
2024-01-17T22:48:45.071Z,1.43
2024-01-17T22:51:12.300Z,2.07
2024-01-17T22:53:39.544Z,1.53
2024-01-17T22:56:06.990Z,1.17
2024-01-17T22:58:34.237Z,1.23
2024-01-17T23:01:01.575Z,1.03
2024-01-17T23:03:28.954Z,2.33
2024-01-17T23:05:56.368Z,2.20
2024-01-17T23:08:23.946Z,1.50
2024-01-17T23:10:51.163Z,1.50
2024-01-17T23:13:23.143Z,1.30
2024-01-17T23:15:51.982Z,1.70
2024-01-17T23:18:19.456Z,1.90
2024-01-17T23:20:47.069Z,2.50
2024-01-17T23:23:14.394Z,2.57
2024-01-17T23:25:41.718Z,0.90
2024-01-17T23:28:09.019Z,2.20
2024-01-17T23:30:36.308Z,2.00
2024-01-17T23:33:04.104Z,2.43
2024-01-17T23:35:31.614Z,1.63
2024-01-17T23:37:58.874Z,2.37
2024-01-17T23:40:26.549Z,0.60
2024-01-17T23:42:53.804Z,1.77
2024-01-17T23:45:21.062Z,1.60
2024-01-17T23:47:48.358Z,1.93
2024-01-17T23:50:15.684Z,1.90
2024-01-17T23:52:43.231Z,2.00
2024-01-17T23:55:11.628Z,2.20
2024-01-17T23:57:39.013Z,1.30
